sensor_id;sensor_type;location;lat;lon;timestamp;P1;durP1;ratioP1;P2;durP2;ratioP2
55328;SDS011;41205;44.264;19.884;2022-11-20T00:00:50;99.18;;;60.38;;
55328;SDS011;41205;44.264;19.884;2022-11-20T00:03:15;51.67;;;36.38;;
55328;SDS011;41205;44.264;19.884;2022-11-20T00:05:42;27.67;;;21.85;;
55328;SDS011;41205;44.264;19.884;2022-11-20T00:08:08;130.48;;;72.20;;
55328;SDS011;41205;44.264;19.884;2022-11-20T00:10:35;26.73;;;19.20;;
55328;SDS011;41205;44.264;19.884;2022-11-20T00:13:05;23.00;;;19.08;;
55328;SDS011;41205;44.264;19.884;2022-11-20T00:15:31;31.48;;;25.50;;
55328;SDS011;41205;44.264;19.884;2022-11-20T00:17:57;61.65;;;42.30;;
55328;SDS011;41205;44.264;19.884;2022-11-20T00:20:23;144.00;;;86.20;;
55328;SDS011;41205;44.264;19.884;2022-11-20T00:22:49;89.00;;;60.75;;
55328;SDS011;41205;44.264;19.884;2022-11-20T00:25:15;70.13;;;51.55;;
55328;SDS011;41205;44.264;19.884;2022-11-20T00:27:41;103.85;;;67.07;;
55328;SDS011;41205;44.264;19.884;2022-11-20T00:30:07;89.65;;;61.38;;
55328;SDS011;41205;44.264;19.884;2022-11-20T00:32:33;173.57;;;120.13;;
55328;SDS011;41205;44.264;19.884;2022-11-20T00:34:59;128.35;;;84.65;;
55328;SDS011;41205;44.264;19.884;2022-11-20T00:37:24;78.57;;;56.78;;
55328;SDS011;41205;44.264;19.884;2022-11-20T00:39:51;130.48;;;91.30;;
55328;SDS011;41205;44.264;19.884;2022-11-20T00:42:16;99.97;;;67.70;;
55328;SDS011;41205;44.264;19.884;2022-11-20T00:44:42;112.28;;;75.93;;
55328;SDS011;41205;44.264;19.884;2022-11-20T00:47:08;90.85;;;62.92;;
55328;SDS011;41205;44.264;19.884;2022-11-20T00:49:33;70.35;;;46.78;;
55328;SDS011;41205;44.264;19.884;2022-11-20T00:51:59;61.08;;;42.60;;
55328;SDS011;41205;44.264;19.884;2022-11-20T00:54:25;112.07;;;73.57;;
55328;SDS011;41205;44.264;19.884;2022-11-20T00:56:52;79.05;;;55.15;;
55328;SDS011;41205;44.264;19.884;2022-11-20T00:59:18;43.40;;;31.08;;
55328;SDS011;41205;44.264;19.884;2022-11-20T01:01:44;42.50;;;29.38;;
55328;SDS011;41205;44.264;19.884;2022-11-20T01:04:10;49.22;;;33.00;;
55328;SDS011;41205;44.264;19.884;2022-11-20T01:06:36;47.38;;;31.50;;
55328;SDS011;41205;44.264;19.884;2022-11-20T01:09:04;44.95;;;32.38;;
55328;SDS011;41205;44.264;19.884;2022-11-20T01:11:33;54.17;;;39.05;;
55328;SDS011;41205;44.264;19.884;2022-11-20T01:14:01;75.40;;;47.47;;
55328;SDS011;41205;44.264;19.884;2022-11-20T01:16:29;74.20;;;51.72;;
55328;SDS011;41205;44.264;19.884;2022-11-20T01:19:01;67.60;;;48.75;;
55328;SDS011;41205;44.264;19.884;2022-11-20T01:21:37;57.60;;;44.53;;
55328;SDS011;41205;44.264;19.884;2022-11-20T01:24:05;95.10;;;68.30;;
55328;SDS011;41205;44.264;19.884;2022-11-20T01:26:34;65.15;;;46.28;;
55328;SDS011;41205;44.264;19.884;2022-11-20T01:29:01;56.10;;;39.92;;
55328;SDS011;41205;44.264;19.884;2022-11-20T01:31:35;45.97;;;35.75;;
55328;SDS011;41205;44.264;19.884;2022-11-20T01:34:03;47.38;;;38.20;;
55328;SDS011;41205;44.264;19.884;2022-11-20T01:36:35;48.75;;;34.92;;
55328;SDS011;41205;44.264;19.884;2022-11-20T01:39:03;56.03;;;40.25;;
55328;SDS011;41205;44.264;19.884;2022-11-20T01:41:31;62.00;;;43.40;;
55328;SDS011;41205;44.264;19.884;2022-11-20T01:44:18;55.78;;;40.42;;
55328;SDS011;41205;44.264;19.884;2022-11-20T01:46:52;57.35;;;39.47;;
55328;SDS011;41205;44.264;19.884;2022-11-20T01:49:34;57.58;;;39.42;;
55328;SDS011;41205;44.264;19.884;2022-11-20T01:52:20;59.42;;;39.20;;
55328;SDS011;41205;44.264;19.884;2022-11-20T01:54:54;51.75;;;34.97;;
55328;SDS011;41205;44.264;19.884;2022-11-20T01:57:25;62.60;;;41.65;;
55328;SDS011;41205;44.264;19.884;2022-11-20T01:59:57;49.00;;;35.85;;
55328;SDS011;41205;44.264;19.884;2022-11-20T02:02:28;38.95;;;28.15;;
55328;SDS011;41205;44.264;19.884;2022-11-20T02:04:54;37.60;;;29.00;;
55328;SDS011;41205;44.264;19.884;2022-11-20T02:07:25;86.80;;;77.32;;
55328;SDS011;41205;44.264;19.884;2022-11-20T02:09:52;35.83;;;28.65;;
55328;SDS011;41205;44.264;19.884;2022-11-20T02:12:18;37.25;;;26.95;;
55328;SDS011;41205;44.264;19.884;2022-11-20T02:15:02;33.28;;;25.30;;
55328;SDS011;41205;44.264;19.884;2022-11-20T02:17:29;41.17;;;26.95;;
55328;SDS011;41205;44.264;19.884;2022-11-20T02:19:55;70.53;;;39.75;;
55328;SDS011;41205;44.264;19.884;2022-11-20T02:22:26;75.30;;;43.80;;
55328;SDS011;41205;44.264;19.884;2022-11-20T02:24:56;56.47;;;33.10;;
55328;SDS011;41205;44.264;19.884;2022-11-20T02:27:23;60.65;;;34.90;;
55328;SDS011;41205;44.264;19.884;2022-11-20T02:34:50;30.33;;;23.15;;
55328;SDS011;41205;44.264;19.884;2022-11-20T02:37:16;31.58;;;23.55;;
55328;SDS011;41205;44.264;19.884;2022-11-20T02:39:43;27.10;;;20.77;;
55328;SDS011;41205;44.264;19.884;2022-11-20T02:42:11;31.98;;;19.65;;
55328;SDS011;41205;44.264;19.884;2022-11-20T02:44:37;36.72;;;23.05;;
55328;SDS011;41205;44.264;19.884;2022-11-20T02:47:02;25.35;;;18.02;;
55328;SDS011;41205;44.264;19.884;2022-11-20T02:49:28;22.60;;;16.25;;
55328;SDS011;41205;44.264;19.884;2022-11-20T02:51:54;24.42;;;18.48;;
55328;SDS011;41205;44.264;19.884;2022-11-20T02:54:19;35.20;;;26.02;;
55328;SDS011;41205;44.264;19.884;2022-11-20T02:56:45;94.00;;;51.92;;
55328;SDS011;41205;44.264;19.884;2022-11-20T02:59:11;43.90;;;28.63;;
55328;SDS011;41205;44.264;19.884;2022-11-20T03:01:36;31.85;;;23.60;;
55328;SDS011;41205;44.264;19.884;2022-11-20T03:04:02;28.05;;;19.73;;
55328;SDS011;41205;44.264;19.884;2022-11-20T03:06:28;36.38;;;23.75;;
55328;SDS011;41205;44.264;19.884;2022-11-20T03:08:54;34.05;;;22.90;;
55328;SDS011;41205;44.264;19.884;2022-11-20T03:11:20;21.92;;;17.20;;
55328;SDS011;41205;44.264;19.884;2022-11-20T03:13:45;21.45;;;15.88;;
55328;SDS011;41205;44.264;19.884;2022-11-20T03:16:12;19.30;;;14.43;;
55328;SDS011;41205;44.264;19.884;2022-11-20T03:18:41;21.60;;;17.30;;
55328;SDS011;41205;44.264;19.884;2022-11-20T03:21:07;19.60;;;13.85;;
55328;SDS011;41205;44.264;19.884;2022-11-20T03:23:34;19.67;;;15.32;;
55328;SDS011;41205;44.264;19.884;2022-11-20T03:26:11;18.52;;;14.38;;
55328;SDS011;41205;44.264;19.884;2022-11-20T03:28:47;19.20;;;14.70;;
55328;SDS011;41205;44.264;19.884;2022-11-20T03:31:21;18.08;;;13.80;;
55328;SDS011;41205;44.264;19.884;2022-11-20T03:33:48;21.33;;;14.82;;
55328;SDS011;41205;44.264;19.884;2022-11-20T03:36:15;24.27;;;18.58;;
55328;SDS011;41205;44.264;19.884;2022-11-20T03:38:42;15.85;;;12.70;;
55328;SDS011;41205;44.264;19.884;2022-11-20T03:41:10;19.77;;;13.50;;
55328;SDS011;41205;44.264;19.884;2022-11-20T03:43:37;17.60;;;13.68;;
55328;SDS011;41205;44.264;19.884;2022-11-20T03:46:03;17.45;;;12.40;;
55328;SDS011;41205;44.264;19.884;2022-11-20T03:48:30;14.57;;;10.80;;
55328;SDS011;41205;44.264;19.884;2022-11-20T03:51:09;21.70;;;13.05;;
55328;SDS011;41205;44.264;19.884;2022-11-20T03:53:36;11.57;;;9.20;;
55328;SDS011;41205;44.264;19.884;2022-11-20T03:56:03;14.57;;;11.55;;
55328;SDS011;41205;44.264;19.884;2022-11-20T03:58:29;17.10;;;12.40;;
55328;SDS011;41205;44.264;19.884;2022-11-20T04:00:55;16.63;;;11.07;;
55328;SDS011;41205;44.264;19.884;2022-11-20T04:03:20;19.85;;;11.57;;
55328;SDS011;41205;44.264;19.884;2022-11-20T04:05:46;18.02;;;14.55;;
55328;SDS011;41205;44.264;19.884;2022-11-20T04:08:12;15.23;;;10.73;;
55328;SDS011;41205;44.264;19.884;2022-11-20T04:10:37;15.90;;;10.73;;
55328;SDS011;41205;44.264;19.884;2022-11-20T04:13:03;15.07;;;11.05;;
55328;SDS011;41205;44.264;19.884;2022-11-20T04:15:29;24.45;;;18.02;;
55328;SDS011;41205;44.264;19.884;2022-11-20T04:17:54;17.95;;;11.95;;
55328;SDS011;41205;44.264;19.884;2022-11-20T04:20:20;13.52;;;10.98;;
55328;SDS011;41205;44.264;19.884;2022-11-20T04:22:46;16.20;;;11.60;;
55328;SDS011;41205;44.264;19.884;2022-11-20T04:25:12;17.80;;;12.48;;
55328;SDS011;41205;44.264;19.884;2022-11-20T04:27:37;16.88;;;11.88;;
55328;SDS011;41205;44.264;19.884;2022-11-20T04:30:03;17.10;;;12.13;;
55328;SDS011;41205;44.264;19.884;2022-11-20T04:32:29;18.67;;;13.65;;
55328;SDS011;41205;44.264;19.884;2022-11-20T04:34:55;19.13;;;13.85;;
55328;SDS011;41205;44.264;19.884;2022-11-20T04:37:20;15.77;;;12.27;;
55328;SDS011;41205;44.264;19.884;2022-11-20T04:39:46;22.88;;;15.27;;
55328;SDS011;41205;44.264;19.884;2022-11-20T04:42:12;15.48;;;11.15;;
55328;SDS011;41205;44.264;19.884;2022-11-20T04:44:56;16.65;;;13.00;;
55328;SDS011;41205;44.264;19.884;2022-11-20T04:47:22;16.80;;;12.32;;
55328;SDS011;41205;44.264;19.884;2022-11-20T04:49:47;19.55;;;14.77;;
55328;SDS011;41205;44.264;19.884;2022-11-20T04:52:13;14.95;;;10.90;;
55328;SDS011;41205;44.264;19.884;2022-11-20T04:54:39;16.00;;;12.48;;
55328;SDS011;41205;44.264;19.884;2022-11-20T04:57:05;16.15;;;10.80;;
55328;SDS011;41205;44.264;19.884;2022-11-20T04:59:31;15.13;;;10.80;;
55328;SDS011;41205;44.264;19.884;2022-11-20T05:01:57;17.00;;;11.55;;
55328;SDS011;41205;44.264;19.884;2022-11-20T05:04:22;22.13;;;13.85;;
55328;SDS011;41205;44.264;19.884;2022-11-20T05:06:49;14.68;;;12.02;;
55328;SDS011;41205;44.264;19.884;2022-11-20T05:09:15;16.35;;;11.13;;
55328;SDS011;41205;44.264;19.884;2022-11-20T05:11:41;15.48;;;11.88;;
55328;SDS011;41205;44.264;19.884;2022-11-20T05:14:06;17.67;;;11.63;;
55328;SDS011;41205;44.264;19.884;2022-11-20T05:16:33;15.07;;;10.20;;
55328;SDS011;41205;44.264;19.884;2022-11-20T05:19:00;15.48;;;10.63;;
55328;SDS011;41205;44.264;19.884;2022-11-20T05:21:25;12.82;;;10.15;;
55328;SDS011;41205;44.264;19.884;2022-11-20T05:23:52;20.00;;;10.85;;
55328;SDS011;41205;44.264;19.884;2022-11-20T05:26:19;14.23;;;11.15;;
55328;SDS011;41205;44.264;19.884;2022-11-20T05:28:49;20.30;;;14.55;;
55328;SDS011;41205;44.264;19.884;2022-11-20T05:31:19;19.58;;;15.73;;
55328;SDS011;41205;44.264;19.884;2022-11-20T05:33:46;22.02;;;14.90;;
55328;SDS011;41205;44.264;19.884;2022-11-20T05:36:13;17.83;;;14.70;;
55328;SDS011;41205;44.264;19.884;2022-11-20T05:38:40;17.55;;;13.38;;
55328;SDS011;41205;44.264;19.884;2022-11-20T05:41:13;17.52;;;13.35;;
55328;SDS011;41205;44.264;19.884;2022-11-20T05:43:41;22.67;;;15.63;;
55328;SDS011;41205;44.264;19.884;2022-11-20T05:46:09;17.52;;;12.75;;
55328;SDS011;41205;44.264;19.884;2022-11-20T05:48:36;17.88;;;13.30;;
55328;SDS011;41205;44.264;19.884;2022-11-20T05:51:03;20.05;;;15.13;;
55328;SDS011;41205;44.264;19.884;2022-11-20T05:53:31;18.05;;;13.50;;
55328;SDS011;41205;44.264;19.884;2022-11-20T05:56:02;19.23;;;13.60;;
55328;SDS011;41205;44.264;19.884;2022-11-20T05:58:33;17.42;;;11.98;;
55328;SDS011;41205;44.264;19.884;2022-11-20T06:01:03;13.60;;;10.23;;
55328;SDS011;41205;44.264;19.884;2022-11-20T06:03:29;14.02;;;9.65;;
55328;SDS011;41205;44.264;19.884;2022-11-20T06:05:54;15.75;;;9.93;;
55328;SDS011;41205;44.264;19.884;2022-11-20T06:08:20;12.55;;;10.52;;
55328;SDS011;41205;44.264;19.884;2022-11-20T06:10:46;12.98;;;9.38;;
55328;SDS011;41205;44.264;19.884;2022-11-20T06:13:11;15.68;;;9.85;;
55328;SDS011;41205;44.264;19.884;2022-11-20T06:15:37;12.82;;;8.05;;
55328;SDS011;41205;44.264;19.884;2022-11-20T06:18:03;12.10;;;10.88;;
55328;SDS011;41205;44.264;19.884;2022-11-20T06:20:28;13.23;;;10.07;;
55328;SDS011;41205;44.264;19.884;2022-11-20T06:22:54;19.40;;;10.77;;
55328;SDS011;41205;44.264;19.884;2022-11-20T06:25:20;12.75;;;8.27;;
55328;SDS011;41205;44.264;19.884;2022-11-20T06:27:45;14.75;;;9.10;;
55328;SDS011;41205;44.264;19.884;2022-11-20T06:30:11;13.55;;;8.82;;
55328;SDS011;41205;44.264;19.884;2022-11-20T06:32:37;14.27;;;10.25;;
55328;SDS011;41205;44.264;19.884;2022-11-20T06:35:03;31.58;;;23.98;;
55328;SDS011;41205;44.264;19.884;2022-11-20T06:37:29;14.18;;;9.77;;
55328;SDS011;41205;44.264;19.884;2022-11-20T06:39:55;15.38;;;13.75;;
55328;SDS011;41205;44.264;19.884;2022-11-20T06:42:20;19.10;;;16.92;;
55328;SDS011;41205;44.264;19.884;2022-11-20T06:44:46;14.57;;;10.10;;
55328;SDS011;41205;44.264;19.884;2022-11-20T06:47:11;25.65;;;20.75;;
55328;SDS011;41205;44.264;19.884;2022-11-20T06:49:37;13.82;;;10.60;;
55328;SDS011;41205;44.264;19.884;2022-11-20T06:52:03;25.23;;;16.00;;
55328;SDS011;41205;44.264;19.884;2022-11-20T06:54:29;32.53;;;23.00;;
55328;SDS011;41205;44.264;19.884;2022-11-20T06:56:55;25.25;;;20.30;;
55328;SDS011;41205;44.264;19.884;2022-11-20T06:59:21;32.88;;;23.98;;
55328;SDS011;41205;44.264;19.884;2022-11-20T07:01:47;23.38;;;20.83;;
55328;SDS011;41205;44.264;19.884;2022-11-20T07:04:13;48.63;;;37.42;;
55328;SDS011;41205;44.264;19.884;2022-11-20T07:06:38;38.25;;;34.05;;
55328;SDS011;41205;44.264;19.884;2022-11-20T07:09:04;27.52;;;24.15;;
55328;SDS011;41205;44.264;19.884;2022-11-20T07:11:30;35.33;;;25.95;;
55328;SDS011;41205;44.264;19.884;2022-11-20T07:13:56;25.60;;;19.27;;
55328;SDS011;41205;44.264;19.884;2022-11-20T07:16:22;29.65;;;26.80;;
55328;SDS011;41205;44.264;19.884;2022-11-20T07:18:48;26.60;;;24.10;;
55328;SDS011;41205;44.264;19.884;2022-11-20T07:21:13;17.30;;;14.02;;
55328;SDS011;41205;44.264;19.884;2022-11-20T07:23:39;15.05;;;11.60;;
55328;SDS011;41205;44.264;19.884;2022-11-20T07:26:09;14.55;;;11.35;;
55328;SDS011;41205;44.264;19.884;2022-11-20T07:28:35;17.45;;;11.57;;
55328;SDS011;41205;44.264;19.884;2022-11-20T07:31:02;122.75;;;96.75;;
55328;SDS011;41205;44.264;19.884;2022-11-20T07:33:29;42.17;;;36.05;;
55328;SDS011;41205;44.264;19.884;2022-11-20T07:35:55;34.20;;;27.83;;
55328;SDS011;41205;44.264;19.884;2022-11-20T07:38:23;17.25;;;14.18;;
55328;SDS011;41205;44.264;19.884;2022-11-20T07:40:48;38.72;;;35.42;;
55328;SDS011;41205;44.264;19.884;2022-11-20T07:43:19;18.00;;;15.10;;
55328;SDS011;41205;44.264;19.884;2022-11-20T07:45:44;9.73;;;7.68;;
55328;SDS011;41205;44.264;19.884;2022-11-20T07:48:10;11.95;;;7.25;;
55328;SDS011;41205;44.264;19.884;2022-11-20T07:50:36;11.10;;;7.65;;
55328;SDS011;41205;44.264;19.884;2022-11-20T07:53:04;10.98;;;6.50;;
55328;SDS011;41205;44.264;19.884;2022-11-20T07:55:31;11.20;;;7.53;;
55328;SDS011;41205;44.264;19.884;2022-11-20T07:57:57;13.00;;;9.57;;
55328;SDS011;41205;44.264;19.884;2022-11-20T08:00:24;10.07;;;7.80;;
55328;SDS011;41205;44.264;19.884;2022-11-20T08:02:50;22.65;;;17.92;;
55328;SDS011;41205;44.264;19.884;2022-11-20T08:05:16;13.32;;;10.43;;
55328;SDS011;41205;44.264;19.884;2022-11-20T08:07:42;16.23;;;12.07;;
55328;SDS011;41205;44.264;19.884;2022-11-20T08:10:10;19.50;;;13.43;;
55328;SDS011;41205;44.264;19.884;2022-11-20T08:12:44;29.48;;;21.05;;
55328;SDS011;41205;44.264;19.884;2022-11-20T08:15:29;20.98;;;16.70;;
55328;SDS011;41205;44.264;19.884;2022-11-20T08:18:01;25.65;;;22.77;;
55328;SDS011;41205;44.264;19.884;2022-11-20T08:20:27;15.88;;;13.18;;
55328;SDS011;41205;44.264;19.884;2022-11-20T08:22:57;18.52;;;13.27;;
55328;SDS011;41205;44.264;19.884;2022-11-20T08:25:24;20.20;;;14.48;;
55328;SDS011;41205;44.264;19.884;2022-11-20T08:27:50;16.02;;;10.18;;
55328;SDS011;41205;44.264;19.884;2022-11-20T08:30:16;15.48;;;12.73;;
55328;SDS011;41205;44.264;19.884;2022-11-20T08:32:42;15.90;;;11.75;;
55328;SDS011;41205;44.264;19.884;2022-11-20T08:35:08;15.85;;;12.10;;
55328;SDS011;41205;44.264;19.884;2022-11-20T08:37:33;18.98;;;15.10;;
55328;SDS011;41205;44.264;19.884;2022-11-20T08:39:59;27.45;;;22.10;;
55328;SDS011;41205;44.264;19.884;2022-11-20T08:42:25;37.75;;;28.55;;
55328;SDS011;41205;44.264;19.884;2022-11-20T08:44:51;20.30;;;15.90;;
55328;SDS011;41205;44.264;19.884;2022-11-20T08:47:16;33.25;;;27.88;;
55328;SDS011;41205;44.264;19.884;2022-11-20T08:49:42;34.75;;;25.88;;
55328;SDS011;41205;44.264;19.884;2022-11-20T08:52:07;27.48;;;20.80;;
55328;SDS011;41205;44.264;19.884;2022-11-20T08:54:33;32.03;;;27.80;;
55328;SDS011;41205;44.264;19.884;2022-11-20T08:56:59;14.98;;;10.65;;
55328;SDS011;41205;44.264;19.884;2022-11-20T08:59:24;12.93;;;9.43;;
55328;SDS011;41205;44.264;19.884;2022-11-20T09:01:50;17.83;;;11.77;;
55328;SDS011;41205;44.264;19.884;2022-11-20T09:04:16;15.80;;;12.60;;
55328;SDS011;41205;44.264;19.884;2022-11-20T09:06:41;21.23;;;18.33;;
55328;SDS011;41205;44.264;19.884;2022-11-20T09:09:07;29.83;;;26.42;;
55328;SDS011;41205;44.264;19.884;2022-11-20T09:11:34;37.45;;;26.27;;
55328;SDS011;41205;44.264;19.884;2022-11-20T09:14:00;43.90;;;30.50;;
55328;SDS011;41205;44.264;19.884;2022-11-20T09:16:27;29.30;;;21.10;;
55328;SDS011;41205;44.264;19.884;2022-11-20T09:18:53;22.60;;;16.42;;
55328;SDS011;41205;44.264;19.884;2022-11-20T09:21:19;16.58;;;13.10;;
55328;SDS011;41205;44.264;19.884;2022-11-20T09:23:44;18.60;;;12.90;;
55328;SDS011;41205;44.264;19.884;2022-11-20T09:26:11;11.45;;;8.48;;
55328;SDS011;41205;44.264;19.884;2022-11-20T09:28:38;14.95;;;11.45;;
55328;SDS011;41205;44.264;19.884;2022-11-20T09:34:02;11.90;;;9.07;;
55328;SDS011;41205;44.264;19.884;2022-11-20T09:36:27;11.27;;;8.30;;
55328;SDS011;41205;44.264;19.884;2022-11-20T09:38:53;10.43;;;8.93;;
55328;SDS011;41205;44.264;19.884;2022-11-20T09:55:23;13.65;;;10.25;;
55328;SDS011;41205;44.264;19.884;2022-11-20T09:57:50;12.70;;;9.07;;
55328;SDS011;41205;44.264;19.884;2022-11-20T10:00:17;14.65;;;11.25;;
55328;SDS011;41205;44.264;19.884;2022-11-20T10:03:06;12.13;;;9.32;;
55328;SDS011;41205;44.264;19.884;2022-11-20T10:05:42;11.45;;;8.50;;
55328;SDS011;41205;44.264;19.884;2022-11-20T10:11:14;13.25;;;8.45;;
55328;SDS011;41205;44.264;19.884;2022-11-20T10:22:30;26.20;;;18.77;;
55328;SDS011;41205;44.264;19.884;2022-11-20T10:25:14;13.98;;;10.27;;
55328;SDS011;41205;44.264;19.884;2022-11-20T10:30:37;15.60;;;9.60;;
55328;SDS011;41205;44.264;19.884;2022-11-20T10:33:21;13.88;;;9.63;;
55328;SDS011;41205;44.264;19.884;2022-11-20T10:38:21;12.63;;;9.70;;
55328;SDS011;41205;44.264;19.884;2022-11-20T10:40:56;69.43;;;47.90;;
55328;SDS011;41205;44.264;19.884;2022-11-20T10:43:44;75.40;;;56.08;;
55328;SDS011;41205;44.264;19.884;2022-11-20T10:46:15;41.13;;;31.45;;
55328;SDS011;41205;44.264;19.884;2022-11-20T10:48:45;27.42;;;19.15;;
55328;SDS011;41205;44.264;19.884;2022-11-20T10:53:45;14.23;;;9.00;;
55328;SDS011;41205;44.264;19.884;2022-11-20T11:04:58;15.25;;;11.57;;
55328;SDS011;41205;44.264;19.884;2022-11-20T11:07:48;14.85;;;9.50;;
55328;SDS011;41205;44.264;19.884;2022-11-20T11:10:21;14.32;;;9.93;;
55328;SDS011;41205;44.264;19.884;2022-11-20T11:12:51;12.88;;;9.93;;
55328;SDS011;41205;44.264;19.884;2022-11-20T11:15:30;20.58;;;13.68;;
55328;SDS011;41205;44.264;19.884;2022-11-20T11:18:01;16.65;;;11.73;;
55328;SDS011;41205;44.264;19.884;2022-11-20T11:20:27;19.50;;;11.57;;
55328;SDS011;41205;44.264;19.884;2022-11-20T11:22:54;16.30;;;11.70;;
55328;SDS011;41205;44.264;19.884;2022-11-20T11:25:34;15.68;;;10.45;;
55328;SDS011;41205;44.264;19.884;2022-11-20T11:30:44;16.00;;;12.02;;
55328;SDS011;41205;44.264;19.884;2022-11-20T11:33:12;15.23;;;11.65;;
55328;SDS011;41205;44.264;19.884;2022-11-20T11:35:45;13.25;;;10.10;;
55328;SDS011;41205;44.264;19.884;2022-11-20T11:38:14;13.73;;;10.32;;
55328;SDS011;41205;44.264;19.884;2022-11-20T11:40:44;14.38;;;11.45;;
55328;SDS011;41205;44.264;19.884;2022-11-20T11:43:19;13.63;;;9.20;;
55328;SDS011;41205;44.264;19.884;2022-11-20T11:54:17;15.93;;;11.55;;
55328;SDS011;41205;44.264;19.884;2022-11-20T11:56:49;14.73;;;10.45;;
55328;SDS011;41205;44.264;19.884;2022-11-20T11:59:18;16.80;;;11.00;;
55328;SDS011;41205;44.264;19.884;2022-11-20T12:01:57;22.05;;;14.95;;
55328;SDS011;41205;44.264;19.884;2022-11-20T12:04:50;12.65;;;10.20;;
55328;SDS011;41205;44.264;19.884;2022-11-20T12:07:22;14.23;;;9.98;;
55328;SDS011;41205;44.264;19.884;2022-11-20T12:12:54;16.08;;;11.35;;
55328;SDS011;41205;44.264;19.884;2022-11-20T12:15:28;17.55;;;11.50;;
55328;SDS011;41205;44.264;19.884;2022-11-20T12:17:55;13.40;;;11.05;;
55328;SDS011;41205;44.264;19.884;2022-11-20T12:20:23;12.73;;;10.00;;
55328;SDS011;41205;44.264;19.884;2022-11-20T12:25:56;19.80;;;12.60;;
55328;SDS011;41205;44.264;19.884;2022-11-20T12:31:23;18.50;;;12.52;;
55328;SDS011;41205;44.264;19.884;2022-11-20T12:34:20;16.42;;;13.52;;
55328;SDS011;41205;44.264;19.884;2022-11-20T12:39:42;13.05;;;11.27;;
55328;SDS011;41205;44.264;19.884;2022-11-20T12:42:15;38.13;;;25.42;;
55328;SDS011;41205;44.264;19.884;2022-11-20T12:45:05;46.22;;;26.67;;
55328;SDS011;41205;44.264;19.884;2022-11-20T12:50:32;12.70;;;10.88;;
55328;SDS011;41205;44.264;19.884;2022-11-20T12:58:32;17.55;;;12.18;;
55328;SDS011;41205;44.264;19.884;2022-11-20T13:01:12;21.48;;;14.07;;
55328;SDS011;41205;44.264;19.884;2022-11-20T13:04:09;17.95;;;15.02;;
55328;SDS011;41205;44.264;19.884;2022-11-20T13:06:55;18.98;;;14.45;;
55328;SDS011;41205;44.264;19.884;2022-11-20T13:09:22;22.77;;;14.80;;
55328;SDS011;41205;44.264;19.884;2022-11-20T13:17:42;15.73;;;10.75;;
55328;SDS011;41205;44.264;19.884;2022-11-20T13:22:51;14.98;;;11.65;;
55328;SDS011;41205;44.264;19.884;2022-11-20T13:28:30;30.80;;;19.90;;
55328;SDS011;41205;44.264;19.884;2022-11-20T13:30:57;31.63;;;19.95;;
55328;SDS011;41205;44.264;19.884;2022-11-20T13:33:39;33.17;;;24.05;;
55328;SDS011;41205;44.264;19.884;2022-11-20T13:36:06;28.15;;;18.77;;
55328;SDS011;41205;44.264;19.884;2022-11-20T13:38:48;23.48;;;15.82;;
55328;SDS011;41205;44.264;19.884;2022-11-20T13:46:48;28.35;;;19.02;;
55328;SDS011;41205;44.264;19.884;2022-11-20T13:49:23;27.20;;;19.58;;
55328;SDS011;41205;44.264;19.884;2022-11-20T13:58:06;21.42;;;13.00;;
55328;SDS011;41205;44.264;19.884;2022-11-20T14:00:50;32.03;;;22.55;;
55328;SDS011;41205;44.264;19.884;2022-11-20T14:03:33;32.35;;;29.02;;
55328;SDS011;41205;44.264;19.884;2022-11-20T14:06:12;43.10;;;24.60;;
55328;SDS011;41205;44.264;19.884;2022-11-20T14:08:47;23.95;;;19.13;;
55328;SDS011;41205;44.264;19.884;2022-11-20T14:14:18;14.15;;;10.50;;
55328;SDS011;41205;44.264;19.884;2022-11-20T14:16:40;17.77;;;14.32;;
55328;SDS011;41205;44.264;19.884;2022-11-20T14:21:47;19.08;;;12.90;;
55328;SDS011;41205;44.264;19.884;2022-11-20T14:24:17;16.83;;;13.15;;
55328;SDS011;41205;44.264;19.884;2022-11-20T14:26:46;35.80;;;24.00;;
55328;SDS011;41205;44.264;19.884;2022-11-20T14:29:16;30.13;;;21.67;;
55328;SDS011;41205;44.264;19.884;2022-11-20T14:31:44;26.23;;;17.60;;
55328;SDS011;41205;44.264;19.884;2022-11-20T14:34:15;16.33;;;13.02;;
55328;SDS011;41205;44.264;19.884;2022-11-20T14:36:43;28.02;;;15.45;;
55328;SDS011;41205;44.264;19.884;2022-11-20T14:39:22;32.13;;;18.80;;
55328;SDS011;41205;44.264;19.884;2022-11-20T14:41:55;97.50;;;49.00;;
55328;SDS011;41205;44.264;19.884;2022-11-20T14:44:26;168.98;;;75.40;;
55328;SDS011;41205;44.264;19.884;2022-11-20T14:46:57;18.77;;;12.90;;
55328;SDS011;41205;44.264;19.884;2022-11-20T14:49:25;28.08;;;16.48;;
55328;SDS011;41205;44.264;19.884;2022-11-20T14:52:00;19.88;;;13.15;;
55328;SDS011;41205;44.264;19.884;2022-11-20T14:54:28;15.43;;;10.50;;
55328;SDS011;41205;44.264;19.884;2022-11-20T14:57:02;14.73;;;11.07;;
55328;SDS011;41205;44.264;19.884;2022-11-20T14:59:29;17.08;;;11.13;;
55328;SDS011;41205;44.264;19.884;2022-11-20T15:02:01;22.17;;;15.45;;
55328;SDS011;41205;44.264;19.884;2022-11-20T15:04:33;16.20;;;11.95;;
55328;SDS011;41205;44.264;19.884;2022-11-20T15:07:09;17.80;;;13.43;;
55328;SDS011;41205;44.264;19.884;2022-11-20T15:09:34;14.55;;;11.07;;
55328;SDS011;41205;44.264;19.884;2022-11-20T15:12:01;18.30;;;13.38;;
55328;SDS011;41205;44.264;19.884;2022-11-20T15:14:29;24.25;;;14.73;;
55328;SDS011;41205;44.264;19.884;2022-11-20T15:16:57;16.85;;;12.07;;
55328;SDS011;41205;44.264;19.884;2022-11-20T15:19:25;46.08;;;29.13;;
55328;SDS011;41205;44.264;19.884;2022-11-20T15:21:51;18.38;;;13.15;;
55328;SDS011;41205;44.264;19.884;2022-11-20T15:24:17;14.48;;;10.57;;
55328;SDS011;41205;44.264;19.884;2022-11-20T15:26:43;96.40;;;53.47;;
55328;SDS011;41205;44.264;19.884;2022-11-20T15:29:13;43.58;;;27.60;;
55328;SDS011;41205;44.264;19.884;2022-11-20T15:31:43;17.17;;;13.43;;
55328;SDS011;41205;44.264;19.884;2022-11-20T15:34:13;26.85;;;18.23;;
55328;SDS011;41205;44.264;19.884;2022-11-20T15:36:40;17.00;;;11.52;;
55328;SDS011;41205;44.264;19.884;2022-11-20T15:39:07;18.42;;;13.43;;
55328;SDS011;41205;44.264;19.884;2022-11-20T15:41:34;70.25;;;42.78;;
55328;SDS011;41205;44.264;19.884;2022-11-20T15:44:00;45.30;;;40.70;;
55328;SDS011;41205;44.264;19.884;2022-11-20T15:46:26;41.65;;;30.27;;
55328;SDS011;41205;44.264;19.884;2022-11-20T15:48:54;24.00;;;19.38;;
55328;SDS011;41205;44.264;19.884;2022-11-20T15:51:24;97.57;;;51.70;;
55328;SDS011;41205;44.264;19.884;2022-11-20T15:53:54;102.55;;;92.38;;
55328;SDS011;41205;44.264;19.884;2022-11-20T15:56:20;25.35;;;22.75;;
55328;SDS011;41205;44.264;19.884;2022-11-20T15:58:46;25.95;;;23.13;;
55328;SDS011;41205;44.264;19.884;2022-11-20T16:01:13;18.52;;;13.75;;
55328;SDS011;41205;44.264;19.884;2022-11-20T16:03:40;41.22;;;37.15;;
55328;SDS011;41205;44.264;19.884;2022-11-20T16:06:06;22.30;;;19.95;;
55328;SDS011;41205;44.264;19.884;2022-11-20T16:08:32;31.08;;;19.35;;